Shelby County Airport
KEET : now visible

Airfield :











YOU CAN JOIN US ON...

 
LOGIN :

Register | Disclaimer

   EN    FR    IT 

 









Legend :    VFR   Marginal VFR   IFR   Intensive IFR   Very Intensive IFR
Visi :
Ceiling :
>= 8 km
>= 3000ft
5 to 8 km
1000 to 3000 ft
1500m to 5 km
500 to 1000 ft
800 to 1500m
200 to 500 ft
< 800m
< 200 ft
Symbols :   Thunderstorms  Fog  Heavy snow  Heavy precipitations  Wind > 20 kt






- Airport Elevation : 586 ft


KEET - Shelby County

CURRENT METAR :
  • 170253Z AUTO 00000KT 10SM CLR 08/07 A3009 RMK AO2 SLP188 T00780067 53000

EXPIRED METARs :
  • 170153Z AUTO 00000KT 10SM CLR 08/07 A3007 RMK AO2 SLP181 T00830072
  • 170053Z AUTO 00000KT 10SM CLR 09/07 A3007 RMK AO2 SLP182 T00940072

TAF KEET
Valid from the 17 at 00:00 until the 18 at 00:00 UTC


162347Z 1700/1724 00000KT P6SM BKN050
FM170400 00000KT 6SM BR BKN015
FM170800 00000KT 4SM BR BKN004
FM171500 12003KT 4SM BR BKN007
FM171800 15006KT P6SM BKN015



MET'MAP, your aeronautical weather chart ! - Copyright ORBIFLY December 2007 - Disclaimer

ORBIFLY MET'MAP TEAM :

Programming & Development : Alexandra Zaïnal
Concept & original design : Baudouin d'Aumeries
Assistance for programming : Marc-Olivier Méhu
Technical & hardware support : Manuel Goepfert

Contact : metmap@orbifly.com




SOURCES & CREDITS :

   NOAA       Earth
Advisory